CheckWX is a tool to help pilots better visualize weather data.  It is not intended as a substitute for an official pre-flight weather briefing.

06:46:28 UTC

OETR TAF
Turaif Domestic Airport
Saudi Arabia
TAF OETR 152300Z 1600/1706 33006KT 8000 FEW040 BECMG 1610/1612 25015KT TEMPO 1610/1614 4000 DU

Jun-16@
00:00 UTC

Jun-16 @ 00:00 UTC

Jun-16@
10:00 UTC

Jun-16 @ 10:00 UTC

TAF OETR 152300Z 1600/1706 33006KT 8000 FEW040
Wind
  • 330° at 6 KTS
Cloud Levels
  • Few at 4,000' AGL

Jun-16@
10:00 UTC

Jun-16 @ 10:00 UTC

Jun-16@
14:00 UTC

Jun-16 @ 14:00 UTC

TEMPO 1610/1614 4000 DU

Temporary

Temporary Changes expected for less than half the time period

Conditions
Dust

Jun-16@
10:00 UTC

Jun-16 @ 10:00 UTC

Jun-17@
06:00 UTC

Jun-17 @ 06:00 UTC

BECMG 1610/1612 25015KT

Becoming

Becoming Conditions expected by Sun, Jun 16, 2019 @ 12:00 UTC

Wind
  • 250° at 15 KTS
Cloud Levels
  • Few at 4,000' AGL